sensor_id;sensor_type;location;lat;lon;timestamp;pressure;altitude;pressure_sealevel;temperature;humidity
38786;BME280;24535;45.508;12.252;2023-02-15T00:01:29;103049.34;;;7.54;62.49
38786;BME280;24535;45.508;12.252;2023-02-15T00:03:55;103048.44;;;7.53;62.24
38786;BME280;24535;45.508;12.252;2023-02-15T00:06:21;103047.66;;;7.50;62.17
38786;BME280;24535;45.508;12.252;2023-02-15T00:08:47;103054.63;;;7.51;61.83
38786;BME280;24535;45.508;12.252;2023-02-15T00:11:14;103052.97;;;7.47;61.66
38786;BME280;24535;45.508;12.252;2023-02-15T00:13:40;103046.91;;;7.43;61.93
38786;BME280;24535;45.508;12.252;2023-02-15T00:16:12;103045.25;;;7.37;61.53
38786;BME280;24535;45.508;12.252;2023-02-15T00:18:41;103040.06;;;7.33;61.75
38786;BME280;24535;45.508;12.252;2023-02-15T00:21:08;103039.25;;;7.28;61.56
38786;BME280;24535;45.508;12.252;2023-02-15T00:23:35;103042.81;;;7.25;61.32
38786;BME280;24535;45.508;12.252;2023-02-15T00:26:11;103043.69;;;7.24;61.35
38786;BME280;24535;45.508;12.252;2023-02-15T00:28:37;103037.63;;;7.21;61.46
38786;BME280;24535;45.508;12.252;2023-02-15T00:31:06;103033.31;;;7.16;61.24
38786;BME280;24535;45.508;12.252;2023-02-15T00:33:32;103038.56;;;7.16;61.41
38786;BME280;24535;45.508;12.252;2023-02-15T00:35:58;103027.31;;;7.08;61.24
38786;BME280;24535;45.508;12.252;2023-02-15T00:38:24;103033.47;;;7.07;61.41
38786;BME280;24535;45.508;12.252;2023-02-15T00:40:55;103030.03;;;7.05;61.88
38786;BME280;24535;45.508;12.252;2023-02-15T00:43:21;103023.09;;;7.01;61.76
38786;BME280;24535;45.508;12.252;2023-02-15T00:45:46;103030.06;;;7.02;61.71
38786;BME280;24535;45.508;12.252;2023-02-15T00:48:12;103018.75;;;6.99;62.01
38786;BME280;24535;45.508;12.252;2023-02-15T00:50:37;103021.38;;;6.99;61.84
38786;BME280;24535;45.508;12.252;2023-02-15T00:53:03;103025.75;;;6.98;61.59
38786;BME280;24535;45.508;12.252;2023-02-15T00:55:28;103013.59;;;6.94;61.67
38786;BME280;24535;45.508;12.252;2023-02-15T00:57:54;103021.44;;;6.94;61.96
38786;BME280;24535;45.508;12.252;2023-02-15T01:00:19;103017.09;;;6.93;62.02
38786;BME280;24535;45.508;12.252;2023-02-15T01:02:45;103013.63;;;6.91;61.97
38786;BME280;24535;45.508;12.252;2023-02-15T01:05:11;103012.75;;;6.90;62.49
38786;BME280;24535;45.508;12.252;2023-02-15T01:07:37;103017.16;;;6.88;62.19
38786;BME280;24535;45.508;12.252;2023-02-15T01:10:04;103010.19;;;6.87;62.39
38786;BME280;24535;45.508;12.252;2023-02-15T01:12:30;103004.97;;;6.86;62.31
38786;BME280;24535;45.508;12.252;2023-02-15T01:14:55;102999.75;;;6.84;62.21
38786;BME280;24535;45.508;12.252;2023-02-15T01:17:21;102990.16;;;6.83;62.58
38786;BME280;24535;45.508;12.252;2023-02-15T01:19:46;102991.88;;;6.84;62.39
38786;BME280;24535;45.508;12.252;2023-02-15T01:22:11;102986.69;;;6.83;62.53
38786;BME280;24535;45.508;12.252;2023-02-15T01:24:37;102988.47;;;6.81;62.82
38786;BME280;24535;45.508;12.252;2023-02-15T01:27:03;102991.13;;;6.78;62.76
38786;BME280;24535;45.508;12.252;2023-02-15T01:29:28;102987.59;;;6.79;62.43
38786;BME280;24535;45.508;12.252;2023-02-15T01:31:53;102985.94;;;6.75;62.67
38786;BME280;24535;45.508;12.252;2023-02-15T01:34:19;102984.16;;;6.75;62.63
38786;BME280;24535;45.508;12.252;2023-02-15T01:36:44;102973.75;;;6.71;62.75
38786;BME280;24535;45.508;12.252;2023-02-15T01:39:10;102980.75;;;6.70;62.39
38786;BME280;24535;45.508;12.252;2023-02-15T01:41:36;102981.66;;;6.67;62.41
38786;BME280;24535;45.508;12.252;2023-02-15T01:44:02;102975.59;;;6.65;62.45
38786;BME280;24535;45.508;12.252;2023-02-15T01:46:35;102972.09;;;6.63;62.88
38786;BME280;24535;45.508;12.252;2023-02-15T01:49:07;102971.28;;;6.61;62.21
38786;BME280;24535;45.508;12.252;2023-02-15T01:51:36;102969.56;;;6.59;62.59
38786;BME280;24535;45.508;12.252;2023-02-15T01:54:15;102968.66;;;6.60;62.68
38786;BME280;24535;45.508;12.252;2023-02-15T01:56:43;102963.50;;;6.55;62.26
38786;BME280;24535;45.508;12.252;2023-02-15T01:59:12;102963.50;;;6.55;62.71
38786;BME280;24535;45.508;12.252;2023-02-15T02:01:40;102960.06;;;6.53;62.26
38786;BME280;24535;45.508;12.252;2023-02-15T02:04:26;102957.44;;;6.53;62.71
38786;BME280;24535;45.508;12.252;2023-02-15T02:06:54;102958.28;;;6.54;63.03
38786;BME280;24535;45.508;12.252;2023-02-15T02:09:22;102963.56;;;6.51;62.25
38786;BME280;24535;45.508;12.252;2023-02-15T02:11:48;102958.38;;;6.48;62.45
38786;BME280;24535;45.508;12.252;2023-02-15T02:14:14;102954.06;;;6.45;62.60
38786;BME280;24535;45.508;12.252;2023-02-15T02:41:36;102941.00;;;6.42;62.25
38786;BME280;24535;45.508;12.252;2023-02-15T02:46:50;102936.72;;;6.35;62.24
38786;BME280;24535;45.508;12.252;2023-02-15T02:49:29;102935.03;;;6.32;62.51
38786;BME280;24535;45.508;12.252;2023-02-15T02:52:04;102930.69;;;6.30;62.54
38786;BME280;24535;45.508;12.252;2023-02-15T02:54:32;102925.53;;;6.24;62.43
38786;BME280;24535;45.508;12.252;2023-02-15T02:57:03;102932.53;;;6.23;62.11
38786;BME280;24535;45.508;12.252;2023-02-15T02:59:39;102925.56;;;6.22;62.65
38786;BME280;24535;45.508;12.252;2023-02-15T03:02:14;102934.31;;;6.21;62.45
38786;BME280;24535;45.508;12.252;2023-02-15T03:04:45;102935.22;;;6.20;62.39
38786;BME280;24535;45.508;12.252;2023-02-15T03:07:18;102927.38;;;6.17;62.65
38786;BME280;24535;45.508;12.252;2023-02-15T03:09:50;102932.63;;;6.15;63.07
38786;BME280;24535;45.508;12.252;2023-02-15T03:12:20;102930.88;;;6.17;63.06
38786;BME280;24535;45.508;12.252;2023-02-15T03:14:52;102938.72;;;6.17;63.05
38786;BME280;24535;45.508;12.252;2023-02-15T03:17:22;102935.22;;;6.18;62.80
38786;BME280;24535;45.508;12.252;2023-02-15T03:19:53;102938.72;;;6.17;62.93
38786;BME280;24535;45.508;12.252;2023-02-15T03:22:25;102927.41;;;6.14;62.78
38786;BME280;24535;45.508;12.252;2023-02-15T03:24:55;102934.38;;;6.15;62.45
38786;BME280;24535;45.508;12.252;2023-02-15T03:27:25;102937.03;;;6.13;62.84
38786;BME280;24535;45.508;12.252;2023-02-15T03:29:57;102932.69;;;6.12;62.90
38786;BME280;24535;45.508;12.252;2023-02-15T03:32:25;102935.31;;;6.12;62.60
38786;BME280;24535;45.508;12.252;2023-02-15T03:34:53;102927.47;;;6.09;62.18
38786;BME280;24535;45.508;12.252;2023-02-15T03:43:13;102933.59;;;6.07;62.57
38786;BME280;24535;45.508;12.252;2023-02-15T03:45:43;102932.75;;;6.06;62.41
38786;BME280;24535;45.508;12.252;2023-02-15T03:48:24;102932.78;;;6.05;62.83
38786;BME280;24535;45.508;12.252;2023-02-15T03:50:54;102925.00;;;6.00;62.29
38786;BME280;24535;45.508;12.252;2023-02-15T03:53:41;102926.75;;;6.00;62.08
38786;BME280;24535;45.508;12.252;2023-02-15T03:56:07;102931.13;;;5.98;62.22
38786;BME280;24535;45.508;12.252;2023-02-15T03:58:32;102928.53;;;5.96;62.27
38786;BME280;24535;45.508;12.252;2023-02-15T04:01:25;102925.91;;;5.96;62.30
38786;BME280;24535;45.508;12.252;2023-02-15T04:04:21;102925.94;;;5.93;62.48
38786;BME280;24535;45.508;12.252;2023-02-15T04:06:48;102920.72;;;5.93;62.48
38786;BME280;24535;45.508;12.252;2023-02-15T04:09:14;102923.31;;;5.93;62.88
38786;BME280;24535;45.508;12.252;2023-02-15T04:11:58;102920.72;;;5.91;62.43
38786;BME280;24535;45.508;12.252;2023-02-15T04:14:24;102921.56;;;5.90;63.32
38786;BME280;24535;45.508;12.252;2023-02-15T04:17:08;102925.94;;;5.93;62.88
38786;BME280;24535;45.508;12.252;2023-02-15T04:19:34;102919.84;;;5.89;62.31
38786;BME280;24535;45.508;12.252;2023-02-15T04:22:18;102926.84;;;5.89;62.80
38786;BME280;24535;45.508;12.252;2023-02-15T04:25:03;102926.81;;;5.87;62.44
38786;BME280;24535;45.508;12.252;2023-02-15T04:27:35;102926.00;;;5.85;62.27
38786;BME280;24535;45.508;12.252;2023-02-15T04:30:01;102921.66;;;5.83;62.47
38786;BME280;24535;45.508;12.252;2023-02-15T04:32:26;102919.09;;;5.78;62.46
38786;BME280;24535;45.508;12.252;2023-02-15T04:34:53;102920.81;;;5.79;62.59
38786;BME280;24535;45.508;12.252;2023-02-15T04:37:18;102925.19;;;5.79;62.38
38786;BME280;24535;45.508;12.252;2023-02-15T04:39:44;102921.75;;;5.77;62.59
38786;BME280;24535;45.508;12.252;2023-02-15T04:42:10;102920.03;;;5.76;62.80
38786;BME280;24535;45.508;12.252;2023-02-15T04:44:35;102920.03;;;5.73;62.57
38786;BME280;24535;45.508;12.252;2023-02-15T04:47:01;102928.78;;;5.72;62.58
38786;BME280;24535;45.508;12.252;2023-02-15T04:49:26;102922.66;;;5.71;62.29
38786;BME280;24535;45.508;12.252;2023-02-15T04:51:51;102929.66;;;5.70;62.82
38786;BME280;24535;45.508;12.252;2023-02-15T04:54:17;102927.03;;;5.70;62.80
38786;BME280;24535;45.508;12.252;2023-02-15T04:56:42;102916.63;;;5.67;62.95
38786;BME280;24535;45.508;12.252;2023-02-15T04:59:11;102920.09;;;5.66;62.67
38786;BME280;24535;45.508;12.252;2023-02-15T05:01:37;102912.31;;;5.62;63.12
38786;BME280;24535;45.508;12.252;2023-02-15T05:04:03;102918.41;;;5.62;62.28
38786;BME280;24535;45.508;12.252;2023-02-15T05:06:29;102917.53;;;5.62;62.94
38786;BME280;24535;45.508;12.252;2023-02-15T05:08:54;102914.97;;;5.60;62.76
38786;BME280;24535;45.508;12.252;2023-02-15T05:11:20;102913.22;;;5.58;62.87
38786;BME280;24535;45.508;12.252;2023-02-15T05:13:46;102921.06;;;5.58;63.07
38786;BME280;24535;45.508;12.252;2023-02-15T05:16:12;102916.72;;;5.57;62.85
38786;BME280;24535;45.508;12.252;2023-02-15T05:18:37;102915.88;;;5.55;62.86
38786;BME280;24535;45.508;12.252;2023-02-15T05:21:03;102914.13;;;5.57;62.96
38786;BME280;24535;45.508;12.252;2023-02-15T05:23:28;102916.75;;;5.54;63.21
38786;BME280;24535;45.508;12.252;2023-02-15T05:25:53;102918.50;;;5.56;63.20
38786;BME280;24535;45.508;12.252;2023-02-15T05:28:38;102911.47;;;5.58;63.30
38786;BME280;24535;45.508;12.252;2023-02-15T05:31:07;102914.06;;;5.61;63.22
38786;BME280;24535;45.508;12.252;2023-02-15T05:33:35;102915.84;;;5.59;63.15
38786;BME280;24535;45.508;12.252;2023-02-15T05:36:01;102922.81;;;5.60;62.93
38786;BME280;24535;45.508;12.252;2023-02-15T05:38:27;102919.31;;;5.60;62.96
38786;BME280;24535;45.508;12.252;2023-02-15T05:40:53;102922.78;;;5.59;62.58
38786;BME280;24535;45.508;12.252;2023-02-15T05:43:20;102929.75;;;5.61;62.95
38786;BME280;24535;45.508;12.252;2023-02-15T05:45:47;102933.25;;;5.59;62.32
38786;BME280;24535;45.508;12.252;2023-02-15T05:48:12;102928.94;;;5.56;62.88
38786;BME280;24535;45.508;12.252;2023-02-15T05:50:38;102930.69;;;5.56;62.59
38786;BME280;24535;45.508;12.252;2023-02-15T05:53:03;102934.19;;;5.53;62.74
38786;BME280;24535;45.508;12.252;2023-02-15T05:55:29;102936.81;;;5.53;63.01
38786;BME280;24535;45.508;12.252;2023-02-15T05:57:54;102946.41;;;5.53;62.14
38786;BME280;24535;45.508;12.252;2023-02-15T06:00:20;102938.59;;;5.50;62.25
38786;BME280;24535;45.508;12.252;2023-02-15T06:02:45;102937.69;;;5.51;62.71
38786;BME280;24535;45.508;12.252;2023-02-15T06:05:11;102936.88;;;5.49;62.51
38786;BME280;24535;45.508;12.252;2023-02-15T06:07:36;102937.75;;;5.48;62.59
38786;BME280;24535;45.508;12.252;2023-02-15T06:10:02;102936.03;;;5.45;62.59
38786;BME280;24535;45.508;12.252;2023-02-15T06:12:28;102943.03;;;5.43;62.58
38786;BME280;24535;45.508;12.252;2023-02-15T06:14:54;102943.06;;;5.40;62.96
38786;BME280;24535;45.508;12.252;2023-02-15T06:17:19;102946.53;;;5.40;62.81
38786;BME280;24535;45.508;12.252;2023-02-15T06:19:46;102943.91;;;5.40;62.87
38786;BME280;24535;45.508;12.252;2023-02-15T06:22:12;102941.28;;;5.40;62.97
38786;BME280;24535;45.508;12.252;2023-02-15T06:24:39;102949.13;;;5.40;62.33
38786;BME280;24535;45.508;12.252;2023-02-15T06:27:07;102948.25;;;5.41;62.82
38786;BME280;24535;45.508;12.252;2023-02-15T06:29:32;102946.56;;;5.39;63.03
38786;BME280;24535;45.508;12.252;2023-02-15T06:31:58;102951.72;;;5.42;63.13
38786;BME280;24535;45.508;12.252;2023-02-15T06:34:23;102944.75;;;5.42;63.15
38786;BME280;24535;45.508;12.252;2023-02-15T06:36:49;102952.56;;;5.45;63.18
38786;BME280;24535;45.508;12.252;2023-02-15T06:39:14;102955.19;;;5.47;63.35
38786;BME280;24535;45.508;12.252;2023-02-15T06:41:40;102960.41;;;5.47;63.01
38786;BME280;24535;45.508;12.252;2023-02-15T06:44:05;102958.59;;;5.51;63.03
38786;BME280;24535;45.508;12.252;2023-02-15T06:46:31;102960.41;;;5.47;63.76
38786;BME280;24535;45.508;12.252;2023-02-15T06:48:56;102972.56;;;5.51;63.22
38786;BME280;24535;45.508;12.252;2023-02-15T06:51:22;102969.94;;;5.53;63.04
38786;BME280;24535;45.508;12.252;2023-02-15T06:53:47;102967.28;;;5.54;63.54
38786;BME280;24535;45.508;12.252;2023-02-15T06:56:13;102976.84;;;5.58;63.54
38786;BME280;24535;45.508;12.252;2023-02-15T06:58:40;102976.84;;;5.60;63.57
38786;BME280;24535;45.508;12.252;2023-02-15T07:01:06;102979.41;;;5.64;63.42
38786;BME280;24535;45.508;12.252;2023-02-15T07:03:32;102977.63;;;5.66;63.53
38786;BME280;24535;45.508;12.252;2023-02-15T07:05:59;102974.97;;;5.69;63.78
38786;BME280;24535;45.508;12.252;2023-02-15T07:08:25;102988.00;;;5.74;63.38
38786;BME280;24535;45.508;12.252;2023-02-15T07:10:52;102982.72;;;5.79;63.90
38786;BME280;24535;45.508;12.252;2023-02-15T07:13:18;102979.25;;;5.80;63.18
38786;BME280;24535;45.508;12.252;2023-02-15T07:15:45;102986.13;;;5.87;63.67
38786;BME280;24535;45.508;12.252;2023-02-15T07:18:11;102983.47;;;5.90;63.19
38786;BME280;24535;45.508;12.252;2023-02-15T07:20:37;102987.84;;;5.96;63.99
38786;BME280;24535;45.508;12.252;2023-02-15T07:23:04;102980.78;;;5.99;63.63
38786;BME280;24535;45.508;12.252;2023-02-15T07:25:30;102978.97;;;6.06;63.58
38786;BME280;24535;45.508;12.252;2023-02-15T07:27:57;102977.19;;;6.09;63.48
38786;BME280;24535;45.508;12.252;2023-02-15T07:30:23;102976.25;;;6.15;63.62
38786;BME280;24535;45.508;12.252;2023-02-15T07:32:48;102970.94;;;6.19;63.64
38786;BME280;24535;45.508;12.252;2023-02-15T07:35:33;102969.16;;;6.25;63.29
38786;BME280;24535;45.508;12.252;2023-02-15T07:37:59;102962.13;;;6.28;63.78
38786;BME280;24535;45.508;12.252;2023-02-15T07:40:25;102970.75;;;6.35;63.69
38786;BME280;24535;45.508;12.252;2023-02-15T07:42:51;102966.31;;;6.41;63.92
38786;BME280;24535;45.508;12.252;2023-02-15T07:45:18;102962.69;;;6.50;64.05
38786;BME280;24535;45.508;12.252;2023-02-15T07:47:44;102953.03;;;6.57;64.14
38786;BME280;24535;45.508;12.252;2023-02-15T07:50:09;102961.59;;;6.66;64.55
38786;BME280;24535;45.508;12.252;2023-02-15T07:52:35;102954.53;;;6.73;64.49
38786;BME280;24535;45.508;12.252;2023-02-15T07:55:00;102960.47;;;6.83;64.69
38786;BME280;24535;45.508;12.252;2023-02-15T07:57:26;102960.38;;;6.90;65.20
38786;BME280;24535;45.508;12.252;2023-02-15T07:59:51;102960.22;;;7.01;65.11
38786;BME280;24535;45.508;12.252;2023-02-15T08:02:17;102959.19;;;7.10;65.12
38786;BME280;24535;45.508;12.252;2023-02-15T08:04:42;102964.28;;;7.19;65.35
38786;BME280;24535;45.508;12.252;2023-02-15T08:07:08;102957.97;;;7.31;65.51
38786;BME280;24535;45.508;12.252;2023-02-15T08:09:33;102962.09;;;7.44;65.49
38786;BME280;24535;45.508;12.252;2023-02-15T08:11:59;102965.44;;;7.54;65.91
38786;BME280;24535;45.508;12.252;2023-02-15T08:14:24;102954.72;;;7.66;65.97
38786;BME280;24535;45.508;12.252;2023-02-15T08:16:54;102963.19;;;7.79;65.60
38786;BME280;24535;45.508;12.252;2023-02-15T08:19:27;102965.59;;;7.91;65.60
38786;BME280;24535;45.508;12.252;2023-02-15T08:21:55;102963.63;;;8.02;65.17
38786;BME280;24535;45.508;12.252;2023-02-15T08:24:23;102954.59;;;8.15;65.90
38786;BME280;24535;45.508;12.252;2023-02-15T08:26:50;102948.16;;;8.29;65.63
38786;BME280;24535;45.508;12.252;2023-02-15T08:29:19;102946.16;;;8.43;65.76
38786;BME280;24535;45.508;12.252;2023-02-15T08:31:46;102944.06;;;8.59;65.72
38786;BME280;24535;45.508;12.252;2023-02-15T08:34:15;102942.81;;;8.74;65.53
38786;BME280;24535;45.508;12.252;2023-02-15T08:36:41;102945.19;;;8.84;65.11
38786;BME280;24535;45.508;12.252;2023-02-15T08:39:07;102944.84;;;8.98;64.42
38786;BME280;24535;45.508;12.252;2023-02-15T08:41:34;102943.72;;;9.08;64.47
38786;BME280;24535;45.508;12.252;2023-02-15T08:44:03;102942.63;;;9.17;64.25
38786;BME280;24535;45.508;12.252;2023-02-15T08:46:32;102938.91;;;9.26;64.12
38786;BME280;24535;45.508;12.252;2023-02-15T08:48:58;102943.91;;;9.35;63.67
38786;BME280;24535;45.508;12.252;2023-02-15T08:51:29;102953.25;;;9.47;64.08
38786;BME280;24535;45.508;12.252;2023-02-15T08:53:57;102938.75;;;9.64;64.33
38786;BME280;24535;45.508;12.252;2023-02-15T08:56:26;102946.81;;;9.89;63.39
38786;BME280;24535;45.508;12.252;2023-02-15T08:58:55;102944.44;;;10.11;62.26
38786;BME280;24535;45.508;12.252;2023-02-15T09:01:26;102942.81;;;10.37;61.93
38786;BME280;24535;45.508;12.252;2023-02-15T09:03:56;102940.34;;;10.60;60.97
38786;BME280;24535;45.508;12.252;2023-02-15T09:06:22;102939.78;;;10.77;60.56
38786;BME280;24535;45.508;12.252;2023-02-15T09:08:49;102939.13;;;10.97;59.49
38786;BME280;24535;45.508;12.252;2023-02-15T09:11:25;102937.84;;;11.10;58.42
38786;BME280;24535;45.508;12.252;2023-02-15T09:13:57;102939.34;;;11.18;58.06
38786;BME280;24535;45.508;12.252;2023-02-15T09:16:24;102935.81;;;11.19;57.79
38786;BME280;24535;45.508;12.252;2023-02-15T09:18:50;102947.06;;;11.24;58.27
38786;BME280;24535;45.508;12.252;2023-02-15T09:21:19;102944.31;;;11.27;58.24
38786;BME280;24535;45.508;12.252;2023-02-15T09:23:46;102946.63;;;11.36;57.65
38786;BME280;24535;45.508;12.252;2023-02-15T09:26:15;102944.53;;;11.46;57.05
38786;BME280;24535;45.508;12.252;2023-02-15T09:28:41;102947.59;;;11.58;56.87
38786;BME280;24535;45.508;12.252;2023-02-15T09:31:09;102947.91;;;11.74;56.99
38786;BME280;24535;45.508;12.252;2023-02-15T09:33:35;102947.47;;;11.88;56.51
38786;BME280;24535;45.508;12.252;2023-02-15T09:36:03;102947.94;;;11.99;55.69
38786;BME280;24535;45.508;12.252;2023-02-15T09:38:29;102943.44;;;12.01;54.76
38786;BME280;24535;45.508;12.252;2023-02-15T09:43:53;102942.22;;;12.10;54.39
38786;BME280;24535;45.508;12.252;2023-02-15T09:49:31;102936.72;;;12.16;53.37
38786;BME280;24535;45.508;12.252;2023-02-15T10:03:16;102932.84;;;12.48;52.75
38786;BME280;24535;45.508;12.252;2023-02-15T10:09:02;102925.16;;;12.64;52.10
38786;BME280;24535;45.508;12.252;2023-02-15T10:17:14;102932.63;;;12.75;52.52
38786;BME280;24535;45.508;12.252;2023-02-15T10:28:26;102930.97;;;13.15;52.18
38786;BME280;24535;45.508;12.252;2023-02-15T10:31:03;102933.00;;;13.30;52.91
38786;BME280;24535;45.508;12.252;2023-02-15T10:33:40;102930.56;;;13.46;52.77
38786;BME280;24535;45.508;12.252;2023-02-15T10:39:04;102919.66;;;13.72;52.29
38786;BME280;24535;45.508;12.252;2023-02-15T10:44:39;102908.16;;;13.92;48.72
38786;BME280;24535;45.508;12.252;2023-02-15T10:56:00;102887.75;;;13.94;48.42
38786;BME280;24535;45.508;12.252;2023-02-15T10:58:51;102881.78;;;13.89;47.90
38786;BME280;24535;45.508;12.252;2023-02-15T11:06:38;102877.56;;;13.66;47.86
38786;BME280;24535;45.508;12.252;2023-02-15T11:09:09;102874.25;;;13.61;47.71
38786;BME280;24535;45.508;12.252;2023-02-15T11:11:40;102878.84;;;13.57;48.54
38786;BME280;24535;45.508;12.252;2023-02-15T11:14:38;102863.22;;;13.51;47.17
38786;BME280;24535;45.508;12.252;2023-02-15T11:17:12;102860.88;;;13.45;47.79
38786;BME280;24535;45.508;12.252;2023-02-15T11:19:55;102863.66;;;13.42;48.26
38786;BME280;24535;45.508;12.252;2023-02-15T11:22:24;102855.75;;;13.41;47.96
38786;BME280;24535;45.508;12.252;2023-02-15T11:24:49;102857.63;;;13.39;47.54
38786;BME280;24535;45.508;12.252;2023-02-15T11:27:24;102845.44;;;13.34;47.40
38786;BME280;24535;45.508;12.252;2023-02-15T11:30:00;102850.88;;;13.31;48.30
38786;BME280;24535;45.508;12.252;2023-02-15T11:32:33;102850.88;;;13.31;48.27
38786;BME280;24535;45.508;12.252;2023-02-15T11:40:36;102834.72;;;13.17;47.55
38786;BME280;24535;45.508;12.252;2023-02-15T11:43:15;102832.47;;;13.08;47.85
38786;BME280;24535;45.508;12.252;2023-02-15T11:45:44;102827.13;;;13.09;47.81
38786;BME280;24535;45.508;12.252;2023-02-15T11:48:12;102828.06;;;13.08;48.63
38786;BME280;24535;45.508;12.252;2023-02-15T11:50:38;102823.88;;;13.03;48.54
38786;BME280;24535;45.508;12.252;2023-02-15T11:53:22;102823.09;;;13.01;48.30
38786;BME280;24535;45.508;12.252;2023-02-15T11:55:53;102825.53;;;13.05;48.44
38786;BME280;24535;45.508;12.252;2023-02-15T12:00:58;102824.59;;;13.06;48.12
38786;BME280;24535;45.508;12.252;2023-02-15T12:03:39;102812.34;;;13.04;48.22
38786;BME280;24535;45.508;12.252;2023-02-15T12:06:16;102813.38;;;13.01;48.20
38786;BME280;24535;45.508;12.252;2023-02-15T12:08:48;102807.28;;;12.99;48.10
38786;BME280;24535;45.508;12.252;2023-02-15T12:11:20;102807.34;;;12.98;48.97
38786;BME280;24535;45.508;12.252;2023-02-15T12:14:02;102808.28;;;12.97;48.98
38786;BME280;24535;45.508;12.252;2023-02-15T12:16:29;102801.25;;;12.96;49.21
38786;BME280;24535;45.508;12.252;2023-02-15T12:18:59;102798.56;;;12.97;49.26
38786;BME280;24535;45.508;12.252;2023-02-15T12:21:29;102790.66;;;12.96;49.18
38786;BME280;24535;45.508;12.252;2023-02-15T12:23:59;102788.97;;;12.95;49.08
38786;BME280;24535;45.508;12.252;2023-02-15T12:26:32;102793.38;;;12.94;48.59
38786;BME280;24535;45.508;12.252;2023-02-15T12:29:00;102788.97;;;12.95;49.26
38786;BME280;24535;45.508;12.252;2023-02-15T12:31:32;102788.22;;;12.91;49.35
38786;BME280;24535;45.508;12.252;2023-02-15T12:34:07;102788.44;;;12.86;49.67
38786;BME280;24535;45.508;12.252;2023-02-15T12:37:07;102795.50;;;12.86;48.82
38786;BME280;24535;45.508;12.252;2023-02-15T12:39:34;102785.13;;;12.81;48.94
38786;BME280;24535;45.508;12.252;2023-02-15T12:42:03;102780.81;;;12.79;49.48
38786;BME280;24535;45.508;12.252;2023-02-15T12:44:35;102777.13;;;12.83;50.27
38786;BME280;24535;45.508;12.252;2023-02-15T12:47:06;102773.50;;;12.85;50.48
38786;BME280;24535;45.508;12.252;2023-02-15T12:49:44;102776.00;;;12.89;49.45
38786;BME280;24535;45.508;12.252;2023-02-15T12:54:48;102762.41;;;12.96;49.92
38786;BME280;24535;45.508;12.252;2023-02-15T12:57:27;102763.22;;;12.98;49.97
38786;BME280;24535;45.508;12.252;2023-02-15T13:02:26;102758.72;;;13.00;49.70
38786;BME280;24535;45.508;12.252;2023-02-15T13:04:53;102757.81;;;13.01;50.02
38786;BME280;24535;45.508;12.252;2023-02-15T13:07:19;102750.66;;;13.03;50.09
38786;BME280;24535;45.508;12.252;2023-02-15T13:09:45;102747.00;;;13.06;49.60
38786;BME280;24535;45.508;12.252;2023-02-15T13:12:23;102741.63;;;13.07;49.06
38786;BME280;24535;45.508;12.252;2023-02-15T13:14:52;102739.94;;;13.06;49.86
38786;BME280;24535;45.508;12.252;2023-02-15T13:17:28;102739.06;;;13.06;49.69
38786;BME280;24535;45.508;12.252;2023-02-15T13:19:58;102730.28;;;13.05;50.22
38786;BME280;24535;45.508;12.252;2023-02-15T13:22:43;102737.38;;;13.05;49.35
38786;BME280;24535;45.508;12.252;2023-02-15T13:25:32;102743.50;;;13.05;49.62
38786;BME280;24535;45.508;12.252;2023-02-15T13:28:04;102731.34;;;13.01;49.88
38786;BME280;24535;45.508;12.252;2023-02-15T13:30:36;102739.19;;;13.03;49.77
38786;BME280;24535;45.508;12.252;2023-02-15T13:33:13;102735.63;;;13.04;50.31
38786;BME280;24535;45.508;12.252;2023-02-15T13:36:11;102739.19;;;13.03;49.77
38786;BME280;24535;45.508;12.252;2023-02-15T13:38:51;102734.00;;;13.01;49.81
38786;BME280;24535;45.508;12.252;2023-02-15T13:41:31;102735.78;;;13.01;49.95
38786;BME280;24535;45.508;12.252;2023-02-15T13:44:18;102731.19;;;13.04;49.73
38786;BME280;24535;45.508;12.252;2023-02-15T13:47:00;102736.47;;;13.04;49.47
38786;BME280;24535;45.508;12.252;2023-02-15T13:49:43;102732.06;;;13.05;50.13
38786;BME280;24535;45.508;12.252;2023-02-15T13:52:23;102743.38;;;13.08;50.32
38786;BME280;24535;45.508;12.252;2023-02-15T13:55:31;102738.09;;;13.08;49.35
38786;BME280;24535;45.508;12.252;2023-02-15T14:08:46;102737.72;;;12.97;49.97
38786;BME280;24535;45.508;12.252;2023-02-15T14:19:48;102730.03;;;12.91;50.51
38786;BME280;24535;45.508;12.252;2023-02-15T14:22:31;102727.38;;;12.91;50.29
38786;BME280;24535;45.508;12.252;2023-02-15T14:30:49;102728.97;;;12.95;49.74
38786;BME280;24535;45.508;12.252;2023-02-15T14:35:43;102728.91;;;12.97;49.76
38786;BME280;24535;45.508;12.252;2023-02-15T14:48:46;102735.09;;;12.96;49.79
38786;BME280;24535;45.508;12.252;2023-02-15T14:56:43;102733.47;;;12.93;49.14
38786;BME280;24535;45.508;12.252;2023-02-15T14:59:16;102727.47;;;12.90;50.02
38786;BME280;24535;45.508;12.252;2023-02-15T15:01:57;102722.31;;;12.86;48.98
38786;BME280;24535;45.508;12.252;2023-02-15T15:04:28;102722.31;;;12.86;49.93
38786;BME280;24535;45.508;12.252;2023-02-15T15:07:03;102713.50;;;12.86;49.51
38786;BME280;24535;45.508;12.252;2023-02-15T15:09:35;102713.59;;;12.84;50.03
38786;BME280;24535;45.508;12.252;2023-02-15T15:15:00;102716.28;;;12.83;50.12
38786;BME280;24535;45.508;12.252;2023-02-15T15:20:00;102705.84;;;12.80;49.49
38786;BME280;24535;45.508;12.252;2023-02-15T15:22:28;102715.50;;;12.81;49.27
38786;BME280;24535;45.508;12.252;2023-02-15T15:24:55;102712.06;;;12.79;49.46
38786;BME280;24535;45.508;12.252;2023-02-15T15:30:02;102711.28;;;12.77;49.40
38786;BME280;24535;45.508;12.252;2023-02-15T15:32:31;102713.19;;;12.73;48.94